Pagrindinis puslapis
METAR-TAF:

METAR-TAF

Oro uostai :

Aransas County Airport

Rockport, Teksasas, Jungtinės Amerikos Valstijos

platuma: 28-05-01N, ilguma: 097-02-47W, Aukštis: 7 m

Dabartinis oras

Ataskaita buvo paskelbta 1 valandą ir 0 minutes, ne 04:53 UTC
Ramus vėjas
Temperatūra 23°C
Drėgmė 89%
Slėgis 1013 hPa
Matomumas: 16.1 km
Giedras dangus

METAR: KRKP 270453Z AUTO 00000KT 10SM CLR 23/21 A2991 RMK AO2 SLP129 T02280206

Laikas: 00:53 (05:53 UTC)


TAF: trūkstamas

Orai ataskaitas ir orų prognozės (METAR, TAF).

turimą stotys yra geltonos ir raudonos taškus žemėlapyje.

Perkelti pele per norėdami pamatyti stoties vardą.

Tada spustelėkite, norėdami matyti oro stebėjimo ir prognozės.

Norėdami pakeisti žemėlapį: spustelėkite ant žalios mygtukų su juodo kryžiaus žemyn,; žalią mygtuką su brūkšneliu, jei norite nutolinti; arba žalių rodyklių gretimoms žemėlapius.


METAR-TAF: